createdAt,value
2018-12-18T00:01:14.586Z,13.18
2018-12-18T00:03:17.600Z,14.77
2018-12-18T00:05:26.854Z,16.95
2018-12-18T00:07:29.754Z,15.38
2018-12-18T00:09:33.428Z,18.67
2018-12-18T00:11:36.321Z,22.60
2018-12-18T00:13:39.234Z,19.02
2018-12-18T00:15:42.123Z,17.87
2018-12-18T00:17:45.794Z,19.05
2018-12-18T00:19:48.691Z,13.23
2018-12-18T00:21:51.591Z,17.30
2018-12-18T00:23:55.290Z,17.55
2018-12-18T00:25:58.959Z,16.87
2018-12-18T00:28:01.902Z,17.05
2018-12-18T00:30:05.545Z,22.10
2018-12-18T00:32:08.423Z,12.50
2018-12-18T00:34:11.322Z,18.63
2018-12-18T00:36:14.306Z,19.15
2018-12-18T00:38:17.200Z,16.00
2018-12-18T00:40:20.873Z,26.87
2018-12-18T00:42:23.793Z,20.48
2018-12-18T00:44:26.687Z,21.35
2018-12-18T00:46:29.700Z,25.42
2018-12-18T00:48:32.587Z,21.00
2018-12-18T00:50:36.271Z,17.98
2018-12-18T00:52:39.174Z,16.12
2018-12-18T00:54:42.065Z,23.33
2018-12-18T00:56:44.968Z,14.77
2018-12-18T00:58:48.626Z,19.40
2018-12-18T01:01:02.177Z,23.97
2018-12-18T01:12:36.800Z,22.40
2018-12-18T01:22:38.608Z,22.13
2018-12-18T01:32:38.990Z,32.77
2018-12-18T01:42:38.820Z,14.97
2018-12-18T01:52:38.503Z,15.00
2018-12-18T02:02:38.189Z,21.27
2018-12-18T02:12:39.744Z,20.13
2018-12-18T02:22:37.900Z,27.23
2018-12-18T02:24:40.799Z,18.27
2018-12-18T02:26:44.551Z,20.43
2018-12-18T02:28:47.557Z,24.67
2018-12-18T02:30:51.195Z,25.88
2018-12-18T02:32:54.236Z,25.48
2018-12-18T02:34:57.899Z,15.40
2018-12-18T02:37:00.782Z,19.12
2018-12-18T02:39:03.688Z,24.03
2018-12-18T02:41:07.363Z,22.25
2018-12-18T02:43:10.253Z,15.90
2018-12-18T02:45:13.212Z,17.52
2018-12-18T02:47:16.127Z,16.02
2018-12-18T02:49:19.234Z,17.25
2018-12-18T02:51:22.959Z,15.73
2018-12-18T02:53:25.882Z,17.92
2018-12-18T02:55:28.817Z,16.57
2018-12-18T02:57:31.766Z,17.62
2018-12-18T02:59:35.478Z,21.47
2018-12-18T03:01:39.281Z,24.23
2018-12-18T03:03:42.997Z,21.80
2018-12-18T03:05:45.996Z,14.70
2018-12-18T03:07:48.914Z,19.03
2018-12-18T03:09:51.887Z,17.10
2018-12-18T03:11:54.876Z,29.67
2018-12-18T03:13:57.791Z,18.63
2018-12-18T03:16:01.632Z,20.88
2018-12-18T03:18:04.552Z,14.38
2018-12-18T03:20:09.001Z,22.70
2018-12-18T03:22:12.835Z,27.33
2018-12-18T03:24:15.883Z,19.10
2018-12-18T03:26:18.847Z,24.23
2018-12-18T03:28:22.568Z,18.35
2018-12-18T03:30:25.514Z,22.37
2018-12-18T03:32:28.448Z,18.98
2018-12-18T03:34:31.402Z,19.75
2018-12-18T03:36:35.216Z,14.98
2018-12-18T03:38:39.017Z,15.40
2018-12-18T03:40:42.823Z,15.18
2018-12-18T03:42:45.751Z,16.92
2018-12-18T03:44:48.784Z,14.43
2018-12-18T03:46:52.602Z,17.65
2018-12-18T03:48:55.556Z,18.03
2018-12-18T03:50:59.242Z,14.00
2018-12-18T03:53:02.256Z,18.87
2018-12-18T03:55:05.954Z,13.85
2018-12-18T03:57:09.756Z,15.43
2018-12-18T03:59:13.492Z,17.98
2018-12-18T04:01:16.419Z,15.63
2018-12-18T04:03:20.143Z,14.25
2018-12-18T04:05:23.248Z,18.83
2018-12-18T04:07:26.183Z,16.00
2018-12-18T04:09:29.107Z,15.88
2018-12-18T04:11:32.154Z,16.70
2018-12-18T04:13:35.850Z,14.68
2018-12-18T04:15:39.572Z,10.23
2018-12-18T04:17:43.297Z,13.60
2018-12-18T04:19:46.219Z,10.52
2018-12-18T04:21:49.242Z,10.43
2018-12-18T04:23:53.165Z,12.25
2018-12-18T04:25:56.084Z,9.30
2018-12-18T04:27:59.010Z,12.00
2018-12-18T04:30:02.723Z,12.00
2018-12-18T04:32:05.856Z,12.23
2018-12-18T04:34:08.788Z,21.83
2018-12-18T04:36:11.861Z,17.83
2018-12-18T04:38:15.557Z,17.73
2018-12-18T04:40:19.252Z,15.98
2018-12-18T04:42:22.977Z,15.57
2018-12-18T04:44:25.898Z,15.57
2018-12-18T04:46:28.928Z,15.18
2018-12-18T04:48:31.892Z,15.93
2018-12-18T04:50:35.715Z,12.20
2018-12-18T04:52:39.395Z,20.25
2018-12-18T04:54:43.215Z,9.27
2018-12-18T04:56:46.895Z,18.65
2018-12-18T04:58:50.593Z,10.80
2018-12-18T05:00:54.321Z,10.05
2018-12-18T05:02:57.260Z,16.10
2018-12-18T05:05:00.182Z,12.27
2018-12-18T05:07:03.127Z,15.57
2018-12-18T05:09:06.866Z,13.40
2018-12-18T05:11:09.864Z,29.65
2018-12-18T05:13:12.825Z,14.17
2018-12-18T05:15:16.631Z,14.40
2018-12-18T05:17:20.315Z,13.70
2018-12-18T05:19:24.131Z,15.02
2018-12-18T05:21:27.937Z,12.70
2018-12-18T05:23:31.736Z,18.27
2018-12-18T05:25:35.768Z,13.20
2018-12-18T05:27:38.691Z,11.73
2018-12-18T05:29:41.608Z,10.27
2018-12-18T05:31:45.316Z,11.27
2018-12-18T05:33:49.109Z,10.70
2018-12-18T05:35:52.913Z,11.88
2018-12-18T05:37:56.639Z,8.88
2018-12-18T05:39:59.573Z,16.87
2018-12-18T05:42:04.007Z,13.55
2018-12-18T05:44:08.047Z,15.93
2018-12-18T05:46:10.968Z,11.43
2018-12-18T05:48:14.086Z,18.53
2018-12-18T05:50:17.814Z,12.70
2018-12-18T05:52:20.732Z,10.73
2018-12-18T05:54:23.754Z,13.30
2018-12-18T05:56:27.467Z,15.03
2018-12-18T05:58:30.398Z,16.10
2018-12-18T06:00:33.454Z,17.40
2018-12-18T06:02:37.252Z,14.45
2018-12-18T06:04:40.176Z,13.35
2018-12-18T06:06:43.101Z,11.43
2018-12-18T06:08:46.190Z,10.98
2018-12-18T06:10:49.140Z,15.82
2018-12-18T06:12:52.823Z,15.95
2018-12-18T06:14:55.776Z,25.23
2018-12-18T06:16:58.695Z,18.37
2018-12-18T06:19:02.391Z,13.57
2018-12-18T06:21:05.367Z,15.50
2018-12-18T06:23:08.296Z,18.52
2018-12-18T06:25:11.234Z,13.18
2018-12-18T06:27:14.197Z,9.70
2018-12-18T06:29:17.134Z,16.37
2018-12-18T06:31:20.067Z,12.60
2018-12-18T06:33:23.656Z,15.20
2018-12-18T06:35:26.575Z,10.45
2018-12-18T06:37:30.264Z,18.15
2018-12-18T06:39:33.252Z,11.27
2018-12-18T06:41:36.948Z,10.20
2018-12-18T06:43:39.871Z,15.73
2018-12-18T06:45:42.898Z,19.20
2018-12-18T06:47:46.022Z,9.98
2018-12-18T06:49:49.826Z,12.82
2018-12-18T06:51:53.555Z,17.15
2018-12-18T06:53:56.478Z,19.17
2018-12-18T06:55:59.423Z,14.87
2018-12-18T06:58:02.375Z,12.30
2018-12-18T07:00:06.072Z,17.77
2018-12-18T07:02:09.772Z,8.93
2018-12-18T07:04:13.733Z,10.40
2018-12-18T07:06:16.659Z,7.60
2018-12-18T07:08:20.339Z,11.20
2018-12-18T07:10:23.283Z,13.48
2018-12-18T07:12:26.203Z,12.77
2018-12-18T07:14:29.899Z,13.65
2018-12-18T07:16:33.565Z,8.30
2018-12-18T07:18:35.853Z,13.93
2018-12-18T07:20:38.784Z,17.15
2018-12-18T07:22:41.860Z,20.02
2018-12-18T07:24:44.802Z,18.15
2018-12-18T07:26:47.824Z,14.50
2018-12-18T07:28:52.434Z,10.73
2018-12-18T07:30:56.245Z,11.07
2018-12-18T07:32:59.929Z,11.57
2018-12-18T07:35:03.651Z,21.45
2018-12-18T07:37:06.587Z,17.70
2018-12-18T07:39:09.519Z,13.48
2018-12-18T07:41:13.236Z,14.50
2018-12-18T07:43:16.192Z,14.20
2018-12-18T07:45:19.876Z,14.87
2018-12-18T07:47:23.614Z,12.50
2018-12-18T07:49:26.544Z,19.33
2018-12-18T07:51:29.466Z,19.35
2018-12-18T07:53:32.665Z,16.20
2018-12-18T07:55:35.591Z,11.75
2018-12-18T07:57:39.292Z,14.27
2018-12-18T07:59:42.251Z,16.00
2018-12-18T08:01:45.166Z,13.38
2018-12-18T08:03:48.098Z,20.45
2018-12-18T08:05:51.064Z,10.65
2018-12-18T08:07:54.039Z,13.40
2018-12-18T08:09:57.715Z,17.70
2018-12-18T08:12:00.691Z,15.20
2018-12-18T08:14:03.883Z,15.32
2018-12-18T08:16:06.815Z,11.33
2018-12-18T08:18:10.918Z,10.98
2018-12-18T08:20:14.624Z,12.27
2018-12-18T08:22:17.552Z,10.10
2018-12-18T08:24:20.495Z,13.52
2018-12-18T08:26:23.445Z,13.52
2018-12-18T08:28:27.129Z,16.65
2018-12-18T08:30:30.985Z,10.13
2018-12-18T08:32:33.935Z,9.07
2018-12-18T08:34:36.900Z,21.15
2018-12-18T08:36:40.918Z,11.00
2018-12-18T08:38:44.594Z,13.13
2018-12-18T08:40:47.524Z,17.35
2018-12-18T08:42:50.514Z,23.33
2018-12-18T08:44:53.440Z,10.88
2018-12-18T08:46:56.361Z,19.95
2018-12-18T08:49:00.217Z,15.23
2018-12-18T08:51:02.279Z,15.63
2018-12-18T08:53:05.196Z,10.30
2018-12-18T08:55:09.019Z,10.77
2018-12-18T08:57:11.939Z,13.83
2018-12-18T08:59:14.939Z,15.07
2018-12-18T09:01:17.994Z,12.63
2018-12-18T09:03:20.924Z,12.05
2018-12-18T09:05:24.626Z,12.40
2018-12-18T09:07:27.701Z,14.07
2018-12-18T09:09:31.393Z,10.55
2018-12-18T09:11:34.330Z,10.80
2018-12-18T09:13:37.280Z,10.30
2018-12-18T09:15:46.771Z,16.95
2018-12-18T09:17:49.898Z,7.15
2018-12-18T09:19:53.614Z,12.52
2018-12-18T09:21:56.580Z,15.63
2018-12-18T09:24:00.280Z,16.70
2018-12-18T09:26:04.090Z,12.52
2018-12-18T09:28:07.782Z,9.50
2018-12-18T09:30:11.454Z,6.05
2018-12-18T09:32:14.594Z,12.43
2018-12-18T09:34:18.519Z,14.23
2018-12-18T09:36:21.452Z,11.48
2018-12-18T09:38:30.953Z,6.43
2018-12-18T09:40:39.480Z,9.13
2018-12-18T09:43:03.339Z,12.18
2018-12-18T09:45:06.479Z,16.27
2018-12-18T09:47:09.407Z,19.65
2018-12-18T09:49:12.336Z,10.35
2018-12-18T09:51:16.164Z,9.50
2018-12-18T09:53:19.095Z,14.20
2018-12-18T09:55:22.077Z,6.50
2018-12-18T09:57:30.830Z,12.00
2018-12-18T09:59:33.764Z,9.95
2018-12-18T10:01:36.688Z,7.95
2018-12-18T10:03:40.196Z,8.20
2018-12-18T10:05:43.148Z,5.18
2018-12-18T10:07:46.830Z,7.35
2018-12-18T10:09:50.547Z,7.37
2018-12-18T10:11:56.521Z,7.82
2018-12-18T10:13:59.473Z,18.48
2018-12-18T10:16:03.196Z,9.15
2018-12-18T10:18:06.955Z,7.35
2018-12-18T10:20:09.979Z,10.55
2018-12-18T10:22:12.949Z,9.95
2018-12-18T10:24:16.760Z,5.65
2018-12-18T10:26:20.342Z,6.60
2018-12-18T10:28:23.397Z,12.03
2018-12-18T10:30:26.320Z,23.40
2018-12-18T10:32:29.319Z,12.50
2018-12-18T10:34:32.280Z,6.80
2018-12-18T10:36:35.964Z,7.27
2018-12-18T10:38:38.897Z,9.85
2018-12-18T10:40:41.860Z,8.45
2018-12-18T10:42:44.777Z,8.85
2018-12-18T10:44:47.718Z,7.22
2018-12-18T10:46:50.675Z,14.53
2018-12-18T10:48:53.592Z,10.83
2018-12-18T10:50:56.533Z,7.62
2018-12-18T10:52:59.477Z,6.78
2018-12-18T10:55:02.390Z,7.57
2018-12-18T10:57:05.413Z,12.27
2018-12-18T10:59:09.324Z,4.72
2018-12-18T11:01:14.112Z,8.27
2018-12-18T11:03:17.124Z,5.30
2018-12-18T11:05:20.852Z,8.98
2018-12-18T11:07:23.800Z,10.48
2018-12-18T11:09:28.435Z,6.87
2018-12-18T11:11:32.191Z,10.40
2018-12-18T11:13:35.114Z,4.07
2018-12-18T11:15:38.817Z,5.53
2018-12-18T11:17:41.851Z,5.07
2018-12-18T11:19:44.778Z,7.05
2018-12-18T11:21:48.099Z,9.07
2018-12-18T11:23:51.175Z,5.40
2018-12-18T11:25:54.097Z,2.45
2018-12-18T11:27:57.120Z,8.52
2018-12-18T11:30:00.841Z,10.55
2018-12-18T11:32:04.536Z,9.73
2018-12-18T11:34:07.442Z,9.00
2018-12-18T11:36:16.228Z,8.32
2018-12-18T11:38:13.426Z,5.50
2018-12-18T11:40:16.943Z,3.97
2018-12-18T11:42:20.666Z,13.70
2018-12-18T11:44:24.379Z,15.93
2018-12-18T11:46:27.299Z,4.07
2018-12-18T11:48:30.272Z,16.67
2018-12-18T11:50:33.216Z,5.00
2018-12-18T11:52:37.019Z,5.10
2018-12-18T11:54:40.904Z,10.17
2018-12-18T11:56:43.901Z,7.00
2018-12-18T11:58:47.576Z,5.70
2018-12-18T12:00:50.918Z,4.18
2018-12-18T12:02:53.861Z,9.97
2018-12-18T12:04:57.562Z,11.90
2018-12-18T12:07:01.514Z,5.87
2018-12-18T12:09:04.428Z,4.53
2018-12-18T12:11:07.444Z,4.10
2018-12-18T12:13:11.148Z,2.97
2018-12-18T12:15:14.071Z,3.23
2018-12-18T12:17:16.994Z,8.20
2018-12-18T12:19:19.938Z,12.03
2018-12-18T12:21:22.871Z,6.40
2018-12-18T12:23:26.552Z,5.23
2018-12-18T12:25:30.291Z,3.83
2018-12-18T12:27:33.271Z,4.10
2018-12-18T12:29:36.954Z,8.43
2018-12-18T12:31:40.760Z,7.90
2018-12-18T12:33:43.692Z,8.00
2018-12-18T12:35:46.620Z,3.78
2018-12-18T12:37:50.446Z,5.47
2018-12-18T12:39:53.362Z,7.53
2018-12-18T12:41:56.292Z,3.53
2018-12-18T12:44:00.290Z,3.12
2018-12-18T12:46:04.074Z,7.40
2018-12-18T12:48:06.991Z,4.03
2018-12-18T12:50:09.959Z,1.83
2018-12-18T12:52:13.659Z,2.25
2018-12-18T12:54:17.428Z,2.57
2018-12-18T12:56:20.412Z,2.60
2018-12-18T12:58:23.426Z,3.27
2018-12-18T13:00:27.229Z,19.03
2018-12-18T13:02:30.957Z,19.93
2018-12-18T13:04:33.888Z,23.60
2018-12-18T13:06:36.828Z,24.17
2018-12-18T13:08:39.815Z,22.67
2018-12-18T13:10:42.862Z,27.10
2018-12-18T13:12:46.557Z,26.00
2018-12-18T13:14:50.361Z,35.07
2018-12-18T13:16:54.164Z,21.67
2018-12-18T13:18:57.856Z,33.17
2018-12-18T13:21:00.892Z,27.60
2018-12-18T13:23:03.934Z,27.90
2018-12-18T13:25:07.658Z,29.30
2018-12-18T13:27:10.866Z,24.03
2018-12-18T13:29:13.837Z,27.70
2018-12-18T13:31:16.889Z,28.10
2018-12-18T13:33:20.675Z,23.30
2018-12-18T13:35:26.430Z,25.13
2018-12-18T13:37:30.335Z,23.17
2018-12-18T13:39:33.367Z,33.20
2018-12-18T13:41:36.297Z,26.27
2018-12-18T13:43:40.225Z,27.40
2018-12-18T13:45:43.331Z,20.80
2018-12-18T13:47:46.296Z,22.52
2018-12-18T13:49:49.628Z,21.10
2018-12-18T13:51:52.604Z,24.17
2018-12-18T13:53:55.518Z,21.03
2018-12-18T13:55:59.958Z,27.43
2018-12-18T13:58:03.103Z,21.75
2018-12-18T14:00:06.048Z,18.77
2018-12-18T14:02:08.974Z,17.77
2018-12-18T14:04:11.995Z,16.30
2018-12-18T14:06:14.928Z,15.70
2018-12-18T14:08:17.961Z,10.30
2018-12-18T14:10:21.988Z,5.70
2018-12-18T14:12:24.906Z,8.60
2018-12-18T14:14:27.848Z,3.90
2018-12-18T14:16:30.830Z,3.70
2018-12-18T14:18:33.774Z,2.93
2018-12-18T14:20:36.703Z,5.20
2018-12-18T14:22:39.760Z,4.73
2018-12-18T14:24:43.464Z,2.70
2018-12-18T14:26:46.403Z,2.83
2018-12-18T14:28:49.555Z,2.50
2018-12-18T14:30:52.615Z,3.33
2018-12-18T14:32:55.579Z,3.33
2018-12-18T14:34:58.936Z,4.40
2018-12-18T14:37:01.834Z,7.90
2018-12-18T14:39:04.855Z,2.65
2018-12-18T14:41:08.789Z,4.70
2018-12-18T14:43:11.748Z,2.10
2018-12-18T14:45:15.431Z,3.90
2018-12-18T14:47:19.169Z,2.93
2018-12-18T14:49:22.091Z,1.60
2018-12-18T14:51:25.106Z,3.00
2018-12-18T14:53:28.981Z,1.37
2018-12-18T14:55:32.698Z,3.23
2018-12-18T14:57:36.411Z,3.00
2018-12-18T14:59:39.342Z,4.10
2018-12-18T15:01:42.378Z,4.60
2018-12-18T15:03:46.049Z,2.93
2018-12-18T15:05:49.011Z,9.73
2018-12-18T15:07:51.924Z,5.47
2018-12-18T15:09:54.840Z,8.70
2018-12-18T15:11:57.791Z,1.40
2018-12-18T15:14:01.607Z,11.53
2018-12-18T15:16:05.291Z,11.70
2018-12-18T15:18:09.052Z,3.53
2018-12-18T15:20:12.059Z,2.47
2018-12-18T15:22:15.863Z,1.80
2018-12-18T15:24:18.995Z,1.93
2018-12-18T15:26:21.912Z,2.50
2018-12-18T15:28:24.850Z,3.70
2018-12-18T15:30:27.891Z,2.15
2018-12-18T15:32:31.017Z,1.87
2018-12-18T15:34:34.698Z,8.47
2018-12-18T15:36:37.674Z,9.20
2018-12-18T15:38:40.642Z,6.10
2018-12-18T15:40:43.666Z,2.50
2018-12-18T15:42:47.571Z,3.50
2018-12-18T15:44:51.268Z,6.43
2018-12-18T15:46:54.951Z,3.45
2018-12-18T15:48:57.992Z,2.80
2018-12-18T15:51:00.928Z,3.90
2018-12-18T15:53:04.620Z,8.67
2018-12-18T15:55:07.654Z,1.57
2018-12-18T15:57:10.574Z,1.80
2018-12-18T15:59:13.487Z,4.97
2018-12-18T16:01:17.489Z,1.10
2018-12-18T16:03:21.163Z,3.97
2018-12-18T16:05:24.090Z,2.60
2018-12-18T16:07:27.156Z,4.30
2018-12-18T16:09:30.957Z,2.90
2018-12-18T16:11:33.954Z,1.63
2018-12-18T16:13:37.794Z,3.13
2018-12-18T16:15:40.725Z,8.13
2018-12-18T16:17:44.533Z,5.90
2018-12-18T16:19:48.353Z,4.93
2018-12-18T16:21:51.295Z,3.20
2018-12-18T16:23:54.987Z,12.55
2018-12-18T16:25:58.495Z,2.47
2018-12-18T16:28:02.216Z,7.03
2018-12-18T16:30:05.140Z,4.15
2018-12-18T16:32:08.287Z,7.63
2018-12-18T16:34:11.208Z,3.22
2018-12-18T16:36:14.144Z,1.85
2018-12-18T16:38:18.568Z,6.13
2018-12-18T16:40:21.543Z,10.23
2018-12-18T16:42:25.219Z,7.62
2018-12-18T16:44:28.959Z,15.85
2018-12-18T16:46:31.922Z,9.90
2018-12-18T16:48:35.622Z,5.87
2018-12-18T16:50:39.323Z,4.50
2018-12-18T16:52:43.006Z,11.00
2018-12-18T16:54:46.110Z,6.60
2018-12-18T16:56:50.040Z,5.28
2018-12-18T16:58:53.718Z,9.37
2018-12-18T17:00:57.413Z,6.70
2018-12-18T17:03:01.237Z,3.80
2018-12-18T17:05:04.158Z,6.00
2018-12-18T17:07:07.180Z,5.35
2018-12-18T17:09:11.091Z,5.07
2018-12-18T17:11:14.772Z,3.40
2018-12-18T17:13:18.454Z,4.70
2018-12-18T17:15:21.403Z,9.85
2018-12-18T17:17:24.340Z,4.53
2018-12-18T17:19:27.248Z,1.90
2018-12-18T17:21:30.186Z,3.10
2018-12-18T17:23:33.115Z,6.05
2018-12-18T17:25:36.039Z,1.95
2018-12-18T17:27:39.081Z,2.95
2018-12-18T17:29:42.008Z,2.60
2018-12-18T17:31:45.026Z,6.87
2018-12-18T17:33:48.131Z,11.10
2018-12-18T17:35:51.216Z,2.35
2018-12-18T17:37:54.131Z,4.70
2018-12-18T17:39:57.067Z,5.90
2018-12-18T17:42:00.006Z,5.78
2018-12-18T17:44:03.027Z,2.83
2018-12-18T17:46:06.735Z,6.85
2018-12-18T17:48:09.660Z,4.55
2018-12-18T17:50:12.693Z,9.70
2018-12-18T17:52:16.487Z,5.70
2018-12-18T17:54:20.196Z,3.10
2018-12-18T17:56:23.904Z,3.25
2018-12-18T17:58:26.994Z,3.60
2018-12-18T18:00:30.672Z,2.10
2018-12-18T18:02:34.355Z,4.25
2018-12-18T18:04:37.487Z,5.03
2018-12-18T18:06:40.400Z,4.12
2018-12-18T18:08:43.330Z,4.73
2018-12-18T18:10:47.130Z,2.65
2018-12-18T18:12:50.831Z,6.10
2018-12-18T18:14:54.507Z,3.57
2018-12-18T18:16:57.459Z,8.30
2018-12-18T18:19:00.366Z,6.00
2018-12-18T18:21:03.281Z,14.13
2018-12-18T18:23:07.096Z,7.53
2018-12-18T18:25:10.015Z,6.70
2018-12-18T18:27:13.106Z,5.10
2018-12-18T18:29:16.052Z,11.03
2018-12-18T18:31:18.967Z,3.90
2018-12-18T18:33:21.902Z,8.45
2018-12-18T18:35:25.817Z,6.10
2018-12-18T18:37:28.752Z,5.57
2018-12-18T18:39:31.675Z,5.18
2018-12-18T18:41:34.745Z,3.60
2018-12-18T18:43:38.428Z,5.40
2018-12-18T18:45:41.345Z,4.25
2018-12-18T18:47:45.286Z,8.43
2018-12-18T18:49:48.653Z,11.02
2018-12-18T18:51:51.574Z,3.92
2018-12-18T18:53:54.537Z,2.97
2018-12-18T18:55:57.452Z,6.35
2018-12-18T18:58:01.887Z,5.00
2018-12-18T19:00:05.612Z,8.32
2018-12-18T19:02:08.523Z,2.25
2018-12-18T19:04:11.450Z,3.70
2018-12-18T19:06:14.785Z,10.05
2018-12-18T19:08:17.741Z,13.13
2018-12-18T19:10:20.671Z,4.70
2018-12-18T19:12:23.635Z,11.73
2018-12-18T19:14:26.551Z,3.72
2018-12-18T19:16:29.475Z,9.40
2018-12-18T19:18:32.448Z,4.12
2018-12-18T19:20:35.373Z,6.70
2018-12-18T19:22:38.298Z,3.60
2018-12-18T19:24:42.018Z,6.90
2018-12-18T19:26:44.958Z,2.50
2018-12-18T19:28:50.358Z,6.07
2018-12-18T19:30:52.930Z,2.28
2018-12-18T19:32:55.851Z,2.03
2018-12-18T19:34:58.787Z,2.80
2018-12-18T19:37:01.959Z,3.60
2018-12-18T19:39:04.933Z,9.85
2018-12-18T19:41:08.619Z,2.87
2018-12-18T19:43:12.345Z,2.00
2018-12-18T19:45:15.272Z,2.95
2018-12-18T19:47:18.292Z,9.93
2018-12-18T19:49:22.020Z,9.13
2018-12-18T19:51:24.975Z,3.57
2018-12-18T19:53:28.717Z,2.00
2018-12-18T19:55:31.776Z,3.13
2018-12-18T19:57:34.688Z,3.70
2018-12-18T19:59:38.427Z,3.10
2018-12-18T20:01:41.769Z,5.00
2018-12-18T20:03:44.679Z,3.47
2018-12-18T20:05:47.700Z,6.55
2018-12-18T20:07:51.415Z,3.17
2018-12-18T20:09:54.360Z,5.53
2018-12-18T20:11:58.785Z,3.35
2018-12-18T20:14:01.817Z,7.17
2018-12-18T20:16:04.747Z,9.95
2018-12-18T20:18:07.676Z,8.30
2018-12-18T20:20:10.618Z,4.78
2018-12-18T20:22:14.302Z,4.60
2018-12-18T20:24:17.233Z,6.32
2018-12-18T20:26:21.127Z,3.75
2018-12-18T20:28:24.050Z,6.65
2018-12-18T20:30:26.978Z,4.47
2018-12-18T20:32:31.168Z,6.10
2018-12-18T20:34:34.200Z,3.90
2018-12-18T20:36:37.367Z,4.60
2018-12-18T20:38:41.271Z,6.55
2018-12-18T20:40:45.040Z,4.40
2018-12-18T20:42:47.934Z,2.55
2018-12-18T20:44:51.699Z,3.30
2018-12-18T20:46:54.603Z,6.95
2018-12-18T20:48:57.519Z,3.35
2018-12-18T20:51:01.346Z,3.60
2018-12-18T20:53:04.275Z,6.60
2018-12-18T20:55:07.193Z,4.95
2018-12-18T20:57:10.131Z,7.68
2018-12-18T20:59:13.050Z,8.43
2018-12-18T21:01:16.727Z,5.35
2018-12-18T21:03:19.675Z,5.80
2018-12-18T21:05:22.619Z,4.20
2018-12-18T21:07:26.301Z,5.80
2018-12-18T21:09:30.108Z,4.60
2018-12-18T21:11:33.063Z,5.90
2018-12-18T21:13:36.074Z,5.82
2018-12-18T21:15:39.895Z,8.38
2018-12-18T21:17:43.596Z,7.50
2018-12-18T21:19:47.355Z,8.02
2018-12-18T21:21:51.828Z,7.68
2018-12-18T21:23:54.738Z,7.72
2018-12-18T21:25:57.676Z,11.77
2018-12-18T21:28:00.771Z,7.97
2018-12-18T21:30:03.697Z,4.67
2018-12-18T21:32:06.607Z,5.28
2018-12-18T21:34:10.425Z,5.15
2018-12-18T21:36:13.340Z,5.25
2018-12-18T21:38:16.273Z,7.22
2018-12-18T21:40:20.468Z,5.05
2018-12-18T21:42:23.472Z,5.00
2018-12-18T21:44:27.152Z,4.57
2018-12-18T21:46:30.155Z,8.50
2018-12-18T21:48:33.953Z,5.20
2018-12-18T21:50:37.627Z,4.35
2018-12-18T21:52:40.709Z,6.20
2018-12-18T21:54:43.723Z,4.55
2018-12-18T21:56:48.242Z,5.15
2018-12-18T21:58:52.159Z,5.07
2018-12-18T22:00:56.661Z,4.85
2018-12-18T22:03:00.349Z,5.82
2018-12-18T22:05:03.297Z,3.12
2018-12-18T22:07:06.332Z,7.65
2018-12-18T22:09:09.274Z,5.62
2018-12-18T22:11:12.226Z,6.07
2018-12-18T22:13:15.148Z,7.57
2018-12-18T22:15:18.068Z,5.57
2018-12-18T22:17:21.005Z,9.85
2018-12-18T22:19:24.523Z,10.93
2018-12-18T22:21:27.443Z,7.78
2018-12-18T22:23:30.396Z,5.72
2018-12-18T22:25:34.080Z,4.68
2018-12-18T22:27:37.007Z,10.88
2018-12-18T22:29:40.095Z,5.50
2018-12-18T22:31:43.022Z,9.30
2018-12-18T22:33:46.032Z,6.12
2018-12-18T22:35:49.734Z,8.55
2018-12-18T22:37:53.415Z,11.30
2018-12-18T22:39:56.439Z,7.37
2018-12-18T22:41:59.502Z,7.12
2018-12-18T22:44:02.419Z,10.13
2018-12-18T22:46:05.355Z,11.43
2018-12-18T22:48:09.174Z,14.45
2018-12-18T22:50:12.848Z,8.50
2018-12-18T22:52:15.750Z,9.65
2018-12-18T22:54:19.650Z,11.32
2018-12-18T22:56:23.327Z,5.43
2018-12-18T22:58:26.266Z,10.23
2018-12-18T23:00:34.811Z,14.23
2018-12-18T23:02:37.731Z,10.07
2018-12-18T23:04:41.419Z,10.43
2018-12-18T23:06:44.473Z,9.43
2018-12-18T23:08:50.420Z,7.28
2018-12-18T23:10:50.366Z,6.70
2018-12-18T23:12:53.326Z,8.00
2018-12-18T23:14:56.240Z,9.05
2018-12-18T23:16:59.926Z,18.20
2018-12-18T23:19:03.083Z,9.68
2018-12-18T23:21:06.213Z,7.72
2018-12-18T23:23:09.890Z,7.78
2018-12-18T23:25:12.851Z,9.70
2018-12-18T23:27:15.759Z,6.47
2018-12-18T23:29:18.681Z,8.60
2018-12-18T23:31:21.745Z,9.50
2018-12-18T23:33:25.449Z,7.90
2018-12-18T23:35:29.125Z,7.68
2018-12-18T23:37:32.067Z,7.50
2018-12-18T23:39:35.023Z,8.87
2018-12-18T23:41:37.955Z,7.30
2018-12-18T23:43:40.917Z,5.80
2018-12-18T23:45:43.823Z,9.27
2018-12-18T23:47:46.732Z,7.65
2018-12-18T23:49:50.439Z,6.95
2018-12-18T23:51:54.189Z,12.07
2018-12-18T23:53:57.091Z,9.60
2018-12-18T23:56:00.026Z,7.32
2018-12-18T23:58:02.939Z,10.38
